Time;durP1;ratioP1;P1;durP2;ratioP2;P2;SDS_P1;SDS_P2;PMS_P1;PMS_P2;Temp;Humidity;BMP_temperature;BMP_pressure;BME280_temperature;BME280_humidity;BME280_pressure;Samples;Min_cycle;Max_cycle;Signal;HPM_P1;HPM_P2
2022/08/01 00:00:46;;;;;;;4.70;2.00;;;;;;;;;;105566;1303;22513;-27
2022/08/01 00:03:14;;;;;;;2.00;1.60;;;;;;;;;;105652;1296;22514;-23
2022/08/01 00:05:45;;;;;;;2.20;1.90;;;;;;;;;;105601;1303;22625;-24
2022/08/01 00:08:13;;;;;;;1.70;1.50;;;;;;;;;;105511;1296;22529;-23
2022/08/01 00:10:42;;;;;;;2.20;1.90;;;;;;;;;;105622;1303;25272;-26
2022/08/01 00:13:11;;;;;;;2.60;1.60;;;;;;;;;;105647;1303;25342;-25
2022/08/01 00:15:40;;;;;;;9.10;1.70;;;;;;;;;;105676;1303;22531;-24
2022/08/01 00:18:09;;;;;;;3.00;1.80;;;;;;;;;;105532;1303;22523;-24
2022/08/01 00:20:38;;;;;;;2.20;1.90;;;;;;;;;;105589;1302;25276;-28
2022/08/01 00:23:06;;;;;;;2.10;1.60;;;;;;;;;;105660;1296;25267;-29
2022/08/01 00:25:35;;;;;;;3.10;2.20;;;;;;;;;;105663;1303;25194;-29
2022/08/01 00:28:08;;;;;;;1.80;1.60;;;;;;;;;;105603;1295;25200;-22
2022/08/01 00:30:37;;;;;;;3.50;1.40;;;;;;;;;;105404;1299;25197;-30
2022/08/01 00:33:05;;;;;;;7.00;2.40;;;;;;;;;;105629;1296;25232;-28
2022/08/01 00:35:34;;;;;;;4.30;2.50;;;;;;;;;;105602;1303;25235;-27
2022/08/01 00:38:03;;;;;;;3.90;3.00;;;;;;;;;;105649;1296;25121;-23
2022/08/01 00:40:32;;;;;;;2.60;2.00;;;;;;;;;;105496;1299;25219;-25
2022/08/01 00:43:01;;;;;;;1.70;1.50;;;;;;;;;;105622;1296;22517;-27
2022/08/01 00:45:30;;;;;;;2.60;2.10;;;;;;;;;;105546;1303;22517;-28
2022/08/01 00:47:59;;;;;;;3.70;2.40;;;;;;;;;;105519;1296;25197;-27
2022/08/01 00:50:28;;;;;;;2.90;2.20;;;;;;;;;;105644;1303;24638;-24
2022/08/01 00:52:57;;;;;;;2.40;1.90;;;;;;;;;;105596;1299;25235;-23
2022/08/01 00:55:26;;;;;;;2.90;2.50;;;;;;;;;;105555;1303;25223;-24
2022/08/01 00:57:55;;;;;;;3.00;2.40;;;;;;;;;;105412;1298;25329;-24
2022/08/01 01:00:24;;;;;;;7.30;2.20;;;;;;;;;;105545;1303;24262;-24
2022/08/01 01:02:53;;;;;;;3.90;3.00;;;;;;;;;;105600;1296;25194;-24
2022/08/01 01:05:22;;;;;;;4.90;3.10;;;;;;;;;;105511;1303;25197;-28
2022/08/01 01:07:54;;;;;;;3.10;2.80;;;;;;;;;;105526;1296;25100;-26
2022/08/01 01:10:27;;;;;;;3.70;2.60;;;;;;;;;;105593;1296;25237;-25
2022/08/01 01:12:59;;;;;;;4.10;3.70;;;;;;;;;;105593;1296;25448;-28
2022/08/01 01:15:30;;;;;;;4.20;3.70;;;;;;;;;;104771;1296;1003391;-28
2022/08/01 01:18:00;;;;;;;8.90;3.50;;;;;;;;;;105521;1295;25197;-23
2022/08/01 01:20:31;;;;;;;4.50;2.90;;;;;;;;;;105541;1298;22514;-23
2022/08/01 01:23:06;;;;;;;5.80;2.50;;;;;;;;;;105585;1299;22513;-23
2022/08/01 01:25:41;;;;;;;2.30;1.90;;;;;;;;;;105599;1299;25160;-23
2022/08/01 01:28:13;;;;;;;2.10;1.90;;;;;;;;;;105581;1303;25513;-28
2022/08/01 01:30:44;;;;;;;2.90;2.20;;;;;;;;;;105591;1298;25312;-25
2022/08/01 01:33:13;;;;;;;4.10;2.60;;;;;;;;;;105496;1299;25149;-30
2022/08/01 01:35:43;;;;;;;4.70;3.00;;;;;;;;;;105614;1303;22907;-28
2022/08/01 01:38:15;;;;;;;2.80;2.50;;;;;;;;;;105636;1289;24219;-28
2022/08/01 01:40:44;;;;;;;2.90;2.50;;;;;;;;;;104891;1298;1003829;-24
2022/08/01 01:43:12;;;;;;;7.20;2.30;;;;;;;;;;105650;1298;25222;-25
2022/08/01 01:45:41;;;;;;;4.80;2.80;;;;;;;;;;105574;1296;25261;-25
2022/08/01 01:48:12;;;;;;;5.60;3.60;;;;;;;;;;105458;1303;25235;-28
2022/08/01 01:50:41;;;;;;;3.10;2.40;;;;;;;;;;105617;1297;22513;-28
2022/08/01 01:53:10;;;;;;;2.70;2.30;;;;;;;;;;105531;1303;24526;-24
2022/08/01 01:55:39;;;;;;;2.90;2.40;;;;;;;;;;105522;1303;22537;-27
2022/08/01 01:58:08;;;;;;;2.80;2.40;;;;;;;;;;105571;1296;22517;-22
2022/08/01 02:00:37;;;;;;;3.90;2.70;;;;;;;;;;105539;1303;25206;-27
2022/08/01 02:03:06;;;;;;;6.50;2.30;;;;;;;;;;105565;1303;22528;-25
2022/08/01 02:05:35;;;;;;;3.30;1.90;;;;;;;;;;105606;1303;22530;-30
2022/08/01 02:08:04;;;;;;;2.30;1.90;;;;;;;;;;105521;1296;24929;-27
2022/08/01 02:10:33;;;;;;;4.50;2.60;;;;;;;;;;105552;1303;25369;-28
2022/08/01 02:13:03;;;;;;;4.20;2.50;;;;;;;;;;105615;1296;24280;-24
2022/08/01 02:15:32;;;;;;;2.60;2.40;;;;;;;;;;105548;1303;25279;-28
2022/08/01 02:18:02;;;;;;;4.90;3.20;;;;;;;;;;105532;1303;25343;-25
2022/08/01 02:20:31;;;;;;;2.70;2.50;;;;;;;;;;105537;1303;24927;-29
2022/08/01 02:23:01;;;;;;;4.10;2.10;;;;;;;;;;105573;1296;24433;-29
2022/08/01 02:25:31;;;;;;;6.50;4.60;;;;;;;;;;105635;1299;25177;-27
2022/08/01 02:28:03;;;;;;;7.10;4.10;;;;;;;;;;105635;1303;22526;-27
2022/08/01 02:30:34;;;;;;;4.20;3.70;;;;;;;;;;105574;1303;22518;-27
2022/08/01 02:33:06;;;;;;;2.50;2.30;;;;;;;;;;105569;1286;24281;-23
2022/08/01 02:35:36;;;;;;;3.10;2.80;;;;;;;;;;105567;1299;22523;-28
2022/08/01 02:38:06;;;;;;;3.60;3.00;;;;;;;;;;105574;1296;25347;-24
2022/08/01 02:40:35;;;;;;;3.80;2.80;;;;;;;;;;105531;1296;25137;-30
2022/08/01 02:43:04;;;;;;;3.40;3.10;;;;;;;;;;105610;1296;22506;-24
2022/08/01 02:45:33;;;;;;;3.00;2.50;;;;;;;;;;105537;1303;25235;-28
2022/08/01 02:48:05;;;;;;;2.80;2.60;;;;;;;;;;105601;1296;25206;-23
2022/08/01 02:50:34;;;;;;;5.10;2.90;;;;;;;;;;105582;1298;24663;-22
2022/08/01 02:53:03;;;;;;;3.60;3.10;;;;;;;;;;105634;1296;25267;-28
2022/08/01 02:55:32;;;;;;;4.00;3.30;;;;;;;;;;105626;1303;22521;-24
2022/08/01 02:58:01;;;;;;;4.70;3.20;;;;;;;;;;105592;1303;22613;-27
2022/08/01 03:00:30;;;;;;;4.20;3.70;;;;;;;;;;105547;1303;25406;-24
2022/08/01 03:02:59;;;;;;;6.30;2.70;;;;;;;;;;105588;1299;24756;-28
2022/08/01 03:05:28;;;;;;;3.30;2.80;;;;;;;;;;105471;1299;25092;-28
2022/08/01 03:07:57;;;;;;;8.70;2.40;;;;;;;;;;105525;1296;22537;-28
2022/08/01 03:10:26;;;;;;;4.70;2.90;;;;;;;;;;105501;1303;25063;-23
2022/08/01 03:12:55;;;;;;;4.00;3.20;;;;;;;;;;105532;1298;24775;-22
2022/08/01 03:15:25;;;;;;;6.10;3.30;;;;;;;;;;105580;1303;25222;-25
2022/08/01 03:17:54;;;;;;;2.60;2.30;;;;;;;;;;105531;1303;22517;-24
2022/08/01 03:20:24;;;;;;;6.10;2.70;;;;;;;;;;105555;1303;24695;-24
2022/08/01 03:22:53;;;;;;;4.90;3.20;;;;;;;;;;105566;1296;25184;-28
2022/08/01 03:25:22;;;;;;;4.40;3.10;;;;;;;;;;105604;1303;25350;-24
2022/08/01 03:28:03;;;;;;;4.00;3.00;;;;;;;;;;105593;1296;25283;-26
2022/08/01 03:30:32;;;;;;;6.50;4.20;;;;;;;;;;105632;1296;25141;-29
2022/08/01 03:33:01;;;;;;;3.40;2.80;;;;;;;;;;105619;1296;22517;-29
2022/08/01 03:35:32;;;;;;;3.70;3.10;;;;;;;;;;105509;1303;25267;-29
2022/08/01 03:38:01;;;;;;;4.30;3.00;;;;;;;;;;105589;1296;25225;-26
2022/08/01 03:40:35;;;;;;;5.30;3.90;;;;;;;;;;105625;1296;25197;-28
2022/08/01 03:43:06;;;;;;;4.10;3.70;;;;;;;;;;105562;1298;24912;-28
2022/08/01 03:45:37;;;;;;;4.30;3.20;;;;;;;;;;105543;1296;22545;-24
2022/08/01 03:48:09;;;;;;;6.10;3.90;;;;;;;;;;105514;1299;25052;-28
2022/08/01 03:50:39;;;;;;;23.80;3.80;;;;;;;;;;105603;1298;25173;-26
2022/08/01 03:53:09;;;;;;;3.60;3.30;;;;;;;;;;105690;1298;22514;-30
2022/08/01 03:55:38;;;;;;;5.40;2.90;;;;;;;;;;105580;1296;25199;-30
2022/08/01 03:58:07;;;;;;;5.80;3.40;;;;;;;;;;105509;1296;24635;-24
2022/08/01 04:00:38;;;;;;;2.70;2.30;;;;;;;;;;104837;1303;1003833;-23
2022/08/01 04:03:07;;;;;;;2.70;2.30;;;;;;;;;;105628;1303;25231;-23
2022/08/01 04:05:36;;;;;;;3.80;3.20;;;;;;;;;;104758;1303;1003892;-28
2022/08/01 04:08:05;;;;;;;5.70;3.30;;;;;;;;;;105492;1298;22522;-22
2022/08/01 04:10:34;;;;;;;5.90;3.00;;;;;;;;;;105575;1303;25250;-24
2022/08/01 04:13:03;;;;;;;3.70;2.40;;;;;;;;;;105618;1296;22515;-28
2022/08/01 04:15:32;;;;;;;7.90;2.80;;;;;;;;;;105497;1303;25338;-28
2022/08/01 04:18:00;;;;;;;6.00;1.80;;;;;;;;;;105608;1296;24766;-25
2022/08/01 04:20:29;;;;;;;3.10;2.80;;;;;;;;;;105588;1303;22612;-24
2022/08/01 04:22:58;;;;;;;3.20;2.70;;;;;;;;;;105543;1298;25338;-30
2022/08/01 04:25:29;;;;;;;3.20;2.60;;;;;;;;;;105484;1303;22548;-28
2022/08/01 04:27:58;;;;;;;7.10;3.50;;;;;;;;;;105545;1296;22981;-26
2022/08/01 04:30:29;;;;;;;3.20;3.00;;;;;;;;;;105627;1303;22529;-24
2022/08/01 04:32:59;;;;;;;2.30;2.20;;;;;;;;;;105630;1296;22501;-28
2022/08/01 04:35:28;;;;;;;2.30;2.10;;;;;;;;;;105622;1296;25238;-29
2022/08/01 04:37:56;;;;;;;2.40;2.20;;;;;;;;;;105554;1298;25244;-28
2022/08/01 04:40:26;;;;;;;2.90;2.50;;;;;;;;;;105540;1303;24698;-25
2022/08/01 04:42:55;;;;;;;2.50;2.00;;;;;;;;;;105623;1298;22514;-30
2022/08/01 04:45:24;;;;;;;3.70;2.40;;;;;;;;;;105413;1303;25206;-25
2022/08/01 04:47:53;;;;;;;2.50;2.30;;;;;;;;;;105658;1296;22514;-26
2022/08/01 04:50:22;;;;;;;2.60;2.00;;;;;;;;;;105575;1303;25012;-24
2022/08/01 04:52:51;;;;;;;2.90;2.60;;;;;;;;;;105563;1296;25188;-23
2022/08/01 04:55:20;;;;;;;5.10;4.10;;;;;;;;;;105566;1303;25234;-30
2022/08/01 04:57:49;;;;;;;3.50;2.40;;;;;;;;;;105576;1303;22513;-26
2022/08/01 05:00:17;;;;;;;3.40;3.10;;;;;;;;;;105216;1303;22521;-24
2022/08/01 05:02:46;;;;;;;3.10;2.90;;;;;;;;;;105596;1303;24433;-28
2022/08/01 05:05:15;;;;;;;3.00;2.70;;;;;;;;;;105641;1303;22506;-24
2022/08/01 05:07:44;;;;;;;4.60;2.50;;;;;;;;;;105641;1296;25203;-24
2022/08/01 05:10:13;;;;;;;2.60;2.40;;;;;;;;;;105642;1303;25223;-25
2022/08/01 05:12:42;;;;;;;2.30;2.10;;;;;;;;;;105581;1299;25157;-24
2022/08/01 05:15:11;;;;;;;4.10;2.10;;;;;;;;;;105651;1303;22530;-28
2022/08/01 05:17:41;;;;;;;4.80;2.70;;;;;;;;;;105543;1296;22503;-26
2022/08/01 05:20:11;;;;;;;2.50;2.00;;;;;;;;;;105629;1299;22496;-25
2022/08/01 05:22:40;;;;;;;1.90;1.80;;;;;;;;;;105479;1303;22549;-28
2022/08/01 05:25:09;;;;;;;2.10;1.90;;;;;;;;;;105608;1296;25235;-28
2022/08/01 05:27:40;;;;;;;4.60;1.80;;;;;;;;;;105635;1303;25410;-29
2022/08/01 05:30:09;;;;;;;1.80;1.60;;;;;;;;;;105642;1299;25187;-29
2022/08/01 05:32:38;;;;;;;2.20;1.40;;;;;;;;;;105513;1303;25225;-24
2022/08/01 05:35:08;;;;;;;2.80;1.80;;;;;;;;;;105569;1298;24842;-28
2022/08/01 05:37:36;;;;;;;2.60;1.90;;;;;;;;;;105516;1303;25239;-29
2022/08/01 05:40:05;;;;;;;2.40;1.70;;;;;;;;;;105611;1296;25195;-29
2022/08/01 05:42:34;;;;;;;1.60;1.50;;;;;;;;;;105614;1303;22538;-25
2022/08/01 05:45:03;;;;;;;2.30;2.10;;;;;;;;;;105629;1296;24471;-30
2022/08/01 05:47:32;;;;;;;2.10;2.00;;;;;;;;;;105557;1303;25235;-25
2022/08/01 05:50:01;;;;;;;2.10;1.60;;;;;;;;;;105543;1296;24458;-29
2022/08/01 05:52:30;;;;;;;3.90;1.90;;;;;;;;;;105474;1303;284896;-29
2022/08/01 05:54:59;;;;;;;3.10;2.30;;;;;;;;;;105526;1303;25235;-29
2022/08/01 05:57:28;;;;;;;2.70;2.10;;;;;;;;;;105571;1303;25235;-29
2022/08/01 05:59:57;;;;;;;1.80;1.50;;;;;;;;;;105664;1296;25197;-29
2022/08/01 06:02:26;;;;;;;5.90;1.70;;;;;;;;;;105566;1303;25197;-24
2022/08/01 06:04:55;;;;;;;5.40;1.90;;;;;;;;;;105547;1298;22539;-24
2022/08/01 06:07:24;;;;;;;2.00;1.40;;;;;;;;;;105626;1303;25194;-31
2022/08/01 06:09:52;;;;;;;1.90;1.70;;;;;;;;;;105497;1303;24891;-25
2022/08/01 06:12:21;;;;;;;2.50;2.20;;;;;;;;;;105664;1303;25272;-25
2022/08/01 06:14:50;;;;;;;2.10;1.80;;;;;;;;;;105655;1303;25197;-24
2022/08/01 06:17:19;;;;;;;2.60;2.00;;;;;;;;;;105644;1303;25604;-28
2022/08/01 06:19:48;;;;;;;2.40;2.10;;;;;;;;;;105539;1303;22525;-27
2022/08/01 06:22:17;;;;;;;2.50;1.80;;;;;;;;;;105613;1303;25228;-29
2022/08/01 06:24:45;;;;;;;1.90;1.70;;;;;;;;;;105590;1299;25204;-25
2022/08/01 06:27:14;;;;;;;1.60;1.30;;;;;;;;;;105585;1303;25197;-29
2022/08/01 06:29:43;;;;;;;1.50;1.40;;;;;;;;;;105533;1296;25229;-29
2022/08/01 06:32:12;;;;;;;1.80;1.50;;;;;;;;;;105567;1303;25197;-25
2022/08/01 06:34:41;;;;;;;2.20;1.20;;;;;;;;;;105617;1299;24479;-25
2022/08/01 06:37:12;;;;;;;2.30;1.50;;;;;;;;;;105427;1303;22514;-28
2022/08/01 06:39:41;;;;;;;3.20;1.50;;;;;;;;;;105632;1299;25411;-29
2022/08/01 06:42:10;;;;;;;2.80;1.40;;;;;;;;;;105557;1303;25337;-25
2022/08/01 06:44:39;;;;;;;2.30;1.50;;;;;;;;;;105577;1296;25366;-24
2022/08/01 06:47:08;;;;;;;5.20;1.40;;;;;;;;;;105511;1303;22540;-24
2022/08/01 06:49:37;;;;;;;3.00;1.70;;;;;;;;;;105568;1299;25301;-24
2022/08/01 06:52:05;;;;;;;2.10;1.80;;;;;;;;;;105595;1303;22520;-25
2022/08/01 06:54:34;;;;;;;2.50;1.50;;;;;;;;;;105599;1299;22551;-30
2022/08/01 06:57:05;;;;;;;4.00;2.00;;;;;;;;;;105418;1303;25124;-29
2022/08/01 06:59:34;;;;;;;2.30;1.80;;;;;;;;;;105570;1298;22496;-28
2022/08/01 07:02:03;;;;;;;2.50;1.80;;;;;;;;;;105589;1303;25072;-25
2022/08/01 07:04:32;;;;;;;1.80;1.40;;;;;;;;;;105653;1296;25175;-23
2022/08/01 07:07:00;;;;;;;2.50;1.40;;;;;;;;;;105471;1303;25202;-29
2022/08/01 07:09:29;;;;;;;5.10;1.40;;;;;;;;;;105562;1303;22521;-25
2022/08/01 07:11:58;;;;;;;4.20;1.60;;;;;;;;;;105535;1303;24775;-31
2022/08/01 07:14:27;;;;;;;2.60;1.10;;;;;;;;;;105583;1299;22517;-31
2022/08/01 07:16:56;;;;;;;1.60;1.30;;;;;;;;;;105646;1299;22528;-25
2022/08/01 07:19:25;;;;;;;3.40;1.90;;;;;;;;;;105529;1303;25159;-24
2022/08/01 07:21:54;;;;;;;6.10;1.90;;;;;;;;;;105555;1303;25241;-26
2022/08/01 07:24:23;;;;;;;1.70;1.30;;;;;;;;;;105648;1296;25209;-30
2022/08/01 07:26:53;;;;;;;2.40;1.30;;;;;;;;;;105614;1303;22473;-24
2022/08/01 07:29:23;;;;;;;3.30;2.00;;;;;;;;;;105598;1299;25245;-29
2022/08/01 07:31:52;;;;;;;2.20;1.90;;;;;;;;;;105602;1296;22550;-25
2022/08/01 07:34:22;;;;;;;2.80;2.30;;;;;;;;;;105597;1298;22603;-29
2022/08/01 07:36:51;;;;;;;1.70;1.30;;;;;;;;;;105473;1303;24711;-26
2022/08/01 07:39:20;;;;;;;2.60;1.70;;;;;;;;;;105555;1299;22531;-31
2022/08/01 07:41:49;;;;;;;3.10;1.60;;;;;;;;;;105595;1296;22523;-29
2022/08/01 07:44:18;;;;;;;2.20;1.50;;;;;;;;;;105630;1299;22542;-28
2022/08/01 07:46:47;;;;;;;3.20;2.10;;;;;;;;;;105564;1296;25225;-29
2022/08/01 07:49:15;;;;;;;5.50;2.30;;;;;;;;;;105618;1295;25193;-29
2022/08/01 07:51:44;;;;;;;2.00;1.80;;;;;;;;;;105543;1303;25222;-27
2022/08/01 07:54:13;;;;;;;4.80;1.60;;;;;;;;;;105491;1302;25277;-31
2022/08/01 07:56:42;;;;;;;3.80;2.40;;;;;;;;;;105513;1303;25346;-29
2022/08/01 07:59:11;;;;;;;3.80;2.00;;;;;;;;;;105705;1303;24382;-29
2022/08/01 08:01:40;;;;;;;7.90;2.00;;;;;;;;;;105567;1303;22501;-26
2022/08/01 08:04:08;;;;;;;9.20;1.40;;;;;;;;;;105533;1302;25335;-30
2022/08/01 08:06:37;;;;;;;2.80;2.30;;;;;;;;;;105360;1303;25299;-26
2022/08/01 08:09:06;;;;;;;3.00;1.20;;;;;;;;;;105446;1299;25246;-31
2022/08/01 08:11:35;;;;;;;3.10;1.90;;;;;;;;;;105422;1303;25241;-29
2022/08/01 08:14:04;;;;;;;2.20;1.80;;;;;;;;;;105673;1296;24868;-25
2022/08/01 08:16:33;;;;;;;5.70;2.10;;;;;;;;;;105566;1296;22520;-29
2022/08/01 08:19:01;;;;;;;4.70;2.30;;;;;;;;;;105407;1299;22558;-25
2022/08/01 08:21:30;;;;;;;6.00;1.90;;;;;;;;;;105688;1303;22504;-29
2022/08/01 08:26:31;;;;;;;2.30;1.80;;;;;;;;;;105549;1296;24980;-25
2022/08/01 08:29:00;;;;;;;2.40;2.00;;;;;;;;;;105572;1299;24338;-29
2022/08/01 08:31:29;;;;;;;7.20;1.80;;;;;;;;;;105642;1303;25239;-26
2022/08/01 08:33:58;;;;;;;2.80;2.50;;;;;;;;;;105608;1296;24737;-26
2022/08/01 08:36:27;;;;;;;3.50;2.10;;;;;;;;;;105476;1303;26836;-25
2022/08/01 08:38:56;;;;;;;3.80;1.30;;;;;;;;;;105572;1302;22516;-25
2022/08/01 08:41:25;;;;;;;2.10;1.50;;;;;;;;;;105550;1303;25234;-26
2022/08/01 08:43:54;;;;;;;2.00;1.70;;;;;;;;;;105542;1302;25197;-28
2022/08/01 08:46:22;;;;;;;2.10;1.70;;;;;;;;;;105551;1303;25196;-26
2022/08/01 08:48:51;;;;;;;3.40;1.40;;;;;;;;;;105515;1296;25208;-25
2022/08/01 08:51:20;;;;;;;4.20;1.70;;;;;;;;;;105333;1304;25235;-28
2022/08/01 08:53:49;;;;;;;2.50;1.50;;;;;;;;;;105626;1303;25194;-25
2022/08/01 08:56:18;;;;;;;1.80;1.70;;;;;;;;;;105598;1303;22530;-28
2022/08/01 08:58:47;;;;;;;2.10;1.90;;;;;;;;;;105499;1299;24647;-25
2022/08/01 09:01:17;;;;;;;2.90;1.30;;;;;;;;;;105584;1303;25170;-25
2022/08/01 09:03:46;;;;;;;2.20;1.80;;;;;;;;;;105573;1299;22530;-24
2022/08/01 09:06:15;;;;;;;2.60;2.40;;;;;;;;;;105601;1303;25270;-29
2022/08/01 09:08:44;;;;;;;3.10;1.90;;;;;;;;;;105632;1295;25360;-28
2022/08/01 09:11:12;;;;;;;2.00;1.50;;;;;;;;;;105535;1303;22512;-29
2022/08/01 09:13:41;;;;;;;2.20;1.60;;;;;;;;;;105611;1296;25063;-25
2022/08/01 09:16:16;;;;;;;11.10;2.30;;;;;;;;;;105593;1303;25196;-25
2022/08/01 09:18:45;;;;;;;2.70;1.40;;;;;;;;;;105589;1303;25443;-31
2022/08/01 09:21:16;;;;;;;3.90;1.90;;;;;;;;;;105617;1303;22526;-29
2022/08/01 09:23:45;;;;;;;1.80;1.60;;;;;;;;;;105620;1296;22510;-28
2022/08/01 09:26:15;;;;;;;2.50;2.00;;;;;;;;;;105650;1303;25213;-25
2022/08/01 09:28:44;;;;;;;1.60;1.30;;;;;;;;;;105605;1298;22629;-30
2022/08/01 09:31:14;;;;;;;1.70;1.60;;;;;;;;;;105570;1303;24180;-24
2022/08/01 09:33:47;;;;;;;8.80;2.20;;;;;;;;;;105622;1296;25302;-24
2022/08/01 09:36:15;;;;;;;3.20;2.60;;;;;;;;;;105580;1296;25112;-28
2022/08/01 09:38:44;;;;;;;1.70;1.10;;;;;;;;;;105577;1299;25195;-24
2022/08/01 09:41:13;;;;;;;2.40;1.70;;;;;;;;;;105517;1299;22526;-30
2022/08/01 09:43:47;;;;;;;2.80;1.90;;;;;;;;;;105590;1299;24458;-26
2022/08/01 09:46:16;;;;;;;2.20;1.60;;;;;;;;;;105548;1296;25206;-30
2022/08/01 09:48:48;;;;;;;2.60;2.30;;;;;;;;;;105616;1296;24773;-30
2022/08/01 09:51:23;;;;;;;2.40;1.90;;;;;;;;;;105592;1296;22514;-26
2022/08/01 09:53:52;;;;;;;2.90;2.30;;;;;;;;;;105602;1303;24911;-29
2022/08/01 09:56:21;;;;;;;4.70;1.60;;;;;;;;;;105559;1303;22517;-29
2022/08/01 09:58:51;;;;;;;2.20;1.80;;;;;;;;;;105530;1303;25244;-29
2022/08/01 10:01:21;;;;;;;11.20;1.50;;;;;;;;;;105520;1303;25226;-25
2022/08/01 10:03:53;;;;;;;2.20;1.80;;;;;;;;;;105612;1303;25228;-27
2022/08/01 10:06:22;;;;;;;2.20;2.00;;;;;;;;;;105668;1299;22513;-28
2022/08/01 10:08:51;;;;;;;3.20;1.80;;;;;;;;;;105490;1303;25250;-29
2022/08/01 10:11:21;;;;;;;1.70;1.20;;;;;;;;;;105604;1296;22517;-25
2022/08/01 10:13:50;;;;;;;4.40;2.00;;;;;;;;;;104851;1303;1003916;-25
2022/08/01 10:16:18;;;;;;;2.60;1.90;;;;;;;;;;105592;1303;22567;-28
2022/08/01 10:18:47;;;;;;;3.10;2.10;;;;;;;;;;105595;1296;25225;-25
2022/08/01 10:21:17;;;;;;;2.90;2.50;;;;;;;;;;105509;1303;22515;-29
2022/08/01 10:23:46;;;;;;;1.90;1.50;;;;;;;;;;105522;1303;22533;-28
2022/08/01 10:26:15;;;;;;;6.60;2.40;;;;;;;;;;105622;1303;25264;-29
2022/08/01 10:28:44;;;;;;;2.50;1.80;;;;;;;;;;105567;1299;22523;-28
2022/08/01 10:31:13;;;;;;;3.00;1.50;;;;;;;;;;105660;1303;22533;-28
2022/08/01 10:33:42;;;;;;;2.60;1.60;;;;;;;;;;105529;1301;22554;-28
2022/08/01 10:36:11;;;;;;;2.60;1.90;;;;;;;;;;105398;1303;22519;-27
2022/08/01 10:38:40;;;;;;;4.30;3.10;;;;;;;;;;105625;1299;25200;-27
2022/08/01 10:41:08;;;;;;;2.20;1.90;;;;;;;;;;105624;1296;24670;-30
2022/08/01 10:43:37;;;;;;;2.50;2.00;;;;;;;;;;105660;1302;25338;-30
2022/08/01 10:46:06;;;;;;;4.30;3.00;;;;;;;;;;105503;1303;22525;-28
2022/08/01 10:48:38;;;;;;;2.20;1.50;;;;;;;;;;105575;1299;22517;-25
2022/08/01 10:51:07;;;;;;;2.40;2.20;;;;;;;;;;105609;1299;25169;-28
2022/08/01 10:53:36;;;;;;;1.70;1.50;;;;;;;;;;105652;1299;25197;-28
2022/08/01 10:56:09;;;;;;;2.50;1.40;;;;;;;;;;105491;1303;25313;-28
2022/08/01 10:58:40;;;;;;;1.80;1.60;;;;;;;;;;105496;1302;25229;-29
2022/08/01 11:01:12;;;;;;;5.30;2.20;;;;;;;;;;105420;1302;25274;-27
2022/08/01 11:03:42;;;;;;;8.20;2.20;;;;;;;;;;105691;1302;22533;-25
2022/08/01 11:06:14;;;;;;;2.90;2.00;;;;;;;;;;105638;1303;25343;-28
2022/08/01 11:08:50;;;;;;;2.10;1.90;;;;;;;;;;105655;1299;25244;-29
2022/08/01 11:11:19;;;;;;;2.80;2.50;;;;;;;;;;105723;1303;25210;-26
2022/08/01 11:13:51;;;;;;;2.70;1.70;;;;;;;;;;105613;1299;22540;-23
2022/08/01 11:16:23;;;;;;;2.60;2.10;;;;;;;;;;105576;1296;24712;-30
2022/08/01 11:18:53;;;;;;;2.10;1.70;;;;;;;;;;104853;1301;1002847;-26
2022/08/01 11:21:26;;;;;;;2.70;1.70;;;;;;;;;;105650;1303;25290;-26
2022/08/01 11:23:55;;;;;;;1.60;1.40;;;;;;;;;;105505;1296;24674;-28
2022/08/01 11:26:24;;;;;;;5.50;1.40;;;;;;;;;;105582;1302;22685;-30
2022/08/01 11:29:13;;;;;;;2.30;1.70;;;;;;;;;;105627;1303;25229;-25
2022/08/01 11:31:42;;;;;;;2.60;2.40;;;;;;;;;;105557;1303;22537;-30
2022/08/01 11:34:11;;;;;;;3.50;1.70;;;;;;;;;;105652;1303;25343;-28
2022/08/01 11:36:39;;;;;;;4.70;2.00;;;;;;;;;;105672;1303;25337;-29
2022/08/01 11:39:10;;;;;;;3.30;2.00;;;;;;;;;;105537;1302;22534;-25
2022/08/01 11:41:40;;;;;;;2.10;1.50;;;;;;;;;;105531;1302;22520;-27
2022/08/01 11:44:10;;;;;;;1.90;1.30;;;;;;;;;;105523;1302;25272;-25
2022/08/01 11:46:43;;;;;;;1.90;1.40;;;;;;;;;;105583;1303;22593;-30
2022/08/01 11:49:15;;;;;;;3.00;1.50;;;;;;;;;;105592;1296;25194;-25
2022/08/01 11:51:56;;;;;;;1.40;1.30;;;;;;;;;;105645;1296;22455;-29
2022/08/01 11:54:34;;;;;;;2.80;1.40;;;;;;;;;;105546;1303;24673;-29
2022/08/01 11:57:04;;;;;;;1.50;1.40;;;;;;;;;;105574;1299;25222;-22
2022/08/01 11:59:36;;;;;;;2.20;1.10;;;;;;;;;;105525;1303;22517;-29
2022/08/01 12:02:14;;;;;;;1.20;1.00;;;;;;;;;;105583;1303;22524;-26
2022/08/01 12:04:44;;;;;;;2.20;1.20;;;;;;;;;;105538;1303;22532;-30
2022/08/01 12:07:14;;;;;;;1.40;1.00;;;;;;;;;;105594;1296;26596;-31
2022/08/01 12:09:54;;;;;;;2.00;1.80;;;;;;;;;;105523;1304;22513;-24
2022/08/01 12:12:23;;;;;;;;;;;;;;;;;;105553;1302;22498;-28
2022/08/01 12:14:54;;;;;;;2.30;1.90;;;;;;;;;;105629;1304;25203;-24
2022/08/01 12:17:26;;;;;;;1.60;1.20;;;;;;;;;;105641;1300;24211;-28
2022/08/01 12:19:55;;;;;;;;;;;;;;;;;;105560;1299;25325;-28
2022/08/01 12:22:24;;;;;;;1.00;1.00;;;;;;;;;;105614;1292;24300;-28
2022/08/01 12:24:53;;;;;;;3.00;1.80;;;;;;;;;;105625;1301;25327;-23
2022/08/01 12:27:26;;;;;;;1.90;1.40;;;;;;;;;;105540;1304;22586;-26
2022/08/01 12:29:55;;;;;;;1.10;1.00;;;;;;;;;;105571;1296;25358;-28
2022/08/01 12:32:26;;;;;;;4.10;1.40;;;;;;;;;;105516;1304;22620;-30
2022/08/01 12:34:55;;;;;;;15.50;1.50;;;;;;;;;;105571;1299;25197;-30
2022/08/01 12:37:24;;;;;;;3.60;1.00;;;;;;;;;;105592;1302;25296;-30
2022/08/01 12:39:53;;;;;;;3.10;1.10;;;;;;;;;;105573;1296;25200;-26
2022/08/01 12:42:22;;;;;;;1.20;0.90;;;;;;;;;;105580;1303;22834;-26
2022/08/01 12:44:51;;;;;;;5.00;1.20;;;;;;;;;;105589;1303;25226;-26
2022/08/01 12:47:20;;;;;;;1.10;1.00;;;;;;;;;;105575;1303;22513;-28
2022/08/01 12:49:49;;;;;;;1.30;1.20;;;;;;;;;;105617;1302;25229;-30
2022/08/01 12:52:21;;;;;;;5.90;0.90;;;;;;;;;;105585;1304;25226;-29
2022/08/01 12:54:54;;;;;;;1.40;1.20;;;;;;;;;;105520;1297;22516;-29
2022/08/01 12:57:23;;;;;;;1.20;1.10;;;;;;;;;;105586;1302;22493;-28
2022/08/01 12:59:52;;;;;;;2.70;1.20;;;;;;;;;;105626;1303;25201;-24
2022/08/01 13:02:30;;;;;;;1.30;1.10;;;;;;;;;;105636;1303;25193;-26
2022/08/01 13:05:09;;;;;;;1.20;1.10;;;;;;;;;;105569;1303;25223;-26
2022/08/01 13:07:40;;;;;;;1.50;1.40;;;;;;;;;;105591;1299;25342;-29
2022/08/01 13:10:09;;;;;;;1.70;1.00;;;;;;;;;;105490;1303;25280;-25
2022/08/01 13:12:38;;;;;;;1.30;1.10;;;;;;;;;;105625;1303;22548;-29
2022/08/01 13:15:11;;;;;;;1.00;0.90;;;;;;;;;;105662;1302;25143;-30
2022/08/01 13:17:40;;;;;;;2.50;1.20;;;;;;;;;;105600;1296;25216;-26
2022/08/01 13:20:09;;;;;;;1.00;0.80;;;;;;;;;;105578;1302;24446;-25
2022/08/01 13:22:38;;;;;;;0.80;0.60;;;;;;;;;;105677;1303;25280;-25
2022/08/01 13:25:09;;;;;;;2.10;1.30;;;;;;;;;;105600;1296;22562;-26
2022/08/01 13:27:46;;;;;;;1.40;0.90;;;;;;;;;;105523;1302;25248;-25
2022/08/01 13:30:16;;;;;;;1.50;0.70;;;;;;;;;;105575;1303;25197;-28
2022/08/01 13:33:01;;;;;;;1.20;1.00;;;;;;;;;;105595;1303;25200;-28
2022/08/01 13:35:30;;;;;;;12.70;1.10;;;;;;;;;;105528;1299;22516;-28
2022/08/01 13:37:59;;;;;;;0.90;0.80;;;;;;;;;;105581;1299;25203;-30
2022/08/01 13:40:27;;;;;;;1.00;0.80;;;;;;;;;;105405;1304;25229;-23
2022/08/01 13:42:56;;;;;;;1.50;1.30;;;;;;;;;;105645;1296;25187;-30
2022/08/01 13:45:25;;;;;;;1.30;1.20;;;;;;;;;;105588;1303;25201;-24
2022/08/01 13:47:54;;;;;;;1.70;1.00;;;;;;;;;;105585;1299;25250;-24
2022/08/01 13:50:23;;;;;;;1.00;0.60;;;;;;;;;;105590;1303;22513;-30
2022/08/01 13:52:52;;;;;;;5.60;0.70;;;;;;;;;;105326;1296;316159;-28
2022/08/01 13:55:20;;;;;;;0.90;0.70;;;;;;;;;;105592;1296;25163;-29
2022/08/01 13:57:49;;;;;;;2.80;1.00;;;;;;;;;;105615;1303;22503;-25
2022/08/01 14:00:18;;;;;;;2.30;1.10;;;;;;;;;;105624;1303;25194;-25
2022/08/01 14:02:47;;;;;;;1.20;1.00;;;;;;;;;;105590;1303;24859;-25
2022/08/01 14:05:16;;;;;;;1.70;1.10;;;;;;;;;;105610;1296;25209;-25
2022/08/01 14:07:45;;;;;;;4.90;1.60;;;;;;;;;;105634;1296;22520;-29
2022/08/01 14:10:14;;;;;;;3.80;1.00;;;;;;;;;;105582;1303;25289;-29
2022/08/01 14:12:43;;;;;;;1.20;1.10;;;;;;;;;;105588;1303;22529;-25
2022/08/01 14:15:12;;;;;;;2.40;1.70;;;;;;;;;;105566;1303;25222;-28
2022/08/01 14:17:41;;;;;;;1.60;0.90;;;;;;;;;;105673;1303;24500;-28
2022/08/01 14:20:10;;;;;;;1.80;1.20;;;;;;;;;;105630;1302;25235;-28
2022/08/01 14:22:40;;;;;;;1.30;1.10;;;;;;;;;;105563;1303;25209;-25
2022/08/01 14:25:09;;;;;;;1.50;1.10;;;;;;;;;;105521;1296;25343;-30
2022/08/01 14:27:39;;;;;;;1.60;0.90;;;;;;;;;;105419;1301;25203;-24
2022/08/01 14:30:08;;;;;;;2.40;2.00;;;;;;;;;;105590;1296;25238;-28
2022/08/01 14:32:37;;;;;;;3.90;1.00;;;;;;;;;;105671;1303;22526;-29
2022/08/01 14:35:07;;;;;;;1.00;0.70;;;;;;;;;;105604;1299;22504;-25
2022/08/01 14:37:36;;;;;;;1.30;1.00;;;;;;;;;;105562;1303;25229;-24
2022/08/01 14:40:08;;;;;;;2.60;1.20;;;;;;;;;;105449;1300;22513;-24
2022/08/01 14:42:37;;;;;;;;;;;;;;;;;;105574;1296;25288;-25
2022/08/01 14:45:08;;;;;;;2.00;1.40;;;;;;;;;;105636;1296;25228;-25
2022/08/01 14:47:37;;;;;;;0.80;0.70;;;;;;;;;;105598;1303;22523;-28